createdAt,value
2017-05-16T00:00:14.903Z,1020.7
2017-05-16T00:01:16.193Z,1020.7
2017-05-16T00:02:17.529Z,1020.67
2017-05-16T00:03:18.903Z,1020.73
2017-05-16T00:04:20.128Z,1020.73
2017-05-16T00:05:21.420Z,1020.73
2017-05-16T00:06:22.711Z,1020.74
2017-05-16T00:07:23.974Z,1020.72
2017-05-16T00:08:25.358Z,1020.74
2017-05-16T00:09:26.743Z,1020.71
2017-05-16T00:10:27.991Z,1020.76
2017-05-16T00:11:29.284Z,1020.7
2017-05-16T00:12:30.567Z,1020.69
2017-05-16T00:13:31.838Z,1020.68
2017-05-16T00:14:33.161Z,1020.67
2017-05-16T00:15:34.542Z,1020.67
2017-05-16T00:16:35.781Z,1020.68
2017-05-16T00:17:37.177Z,1020.62
2017-05-16T00:18:38.545Z,1020.59
2017-05-16T00:19:39.895Z,1020.6
2017-05-16T00:20:41.108Z,1020.62
2017-05-16T00:21:42.371Z,1020.64
2017-05-16T00:22:43.641Z,1020.63
2017-05-16T00:23:44.923Z,1020.64
2017-05-16T00:24:46.273Z,1020.66
2017-05-16T00:25:47.562Z,1020.6
2017-05-16T00:26:48.824Z,1020.61
2017-05-16T00:27:50.150Z,1020.59
2017-05-16T00:28:51.430Z,1020.56
2017-05-16T00:29:52.742Z,1020.59
2017-05-16T00:30:54.017Z,1020.6
2017-05-16T00:31:55.300Z,1020.59
2017-05-16T00:32:56.564Z,1020.58
2017-05-16T00:33:57.842Z,1020.58
2017-05-16T00:34:59.157Z,1020.56
2017-05-16T00:36:00.446Z,1020.57
2017-05-16T00:37:01.804Z,1020.57
2017-05-16T00:38:03.039Z,1020.59
2017-05-16T00:39:04.424Z,1020.56
2017-05-16T00:40:05.681Z,1020.54
2017-05-16T00:41:06.954Z,1020.51
2017-05-16T00:42:08.263Z,1020.53
2017-05-16T00:43:09.656Z,1020.53
2017-05-16T00:44:10.923Z,1020.49
2017-05-16T00:45:12.224Z,1020.52
2017-05-16T00:46:13.513Z,1020.51
2017-05-16T00:47:14.889Z,1020.5
2017-05-16T00:48:16.209Z,1020.47
2017-05-16T00:49:17.430Z,1020.52
2017-05-16T00:50:18.734Z,1020.49
2017-05-16T00:51:20.001Z,1020.48
2017-05-16T00:52:21.316Z,1020.47
2017-05-16T00:53:22.592Z,1020.5
2017-05-16T00:54:23.891Z,1020.46
2017-05-16T00:55:25.232Z,1020.51
2017-05-16T00:56:26.520Z,1020.48
2017-05-16T00:57:27.811Z,1020.45
2017-05-16T00:58:29.085Z,1020.46
2017-05-16T00:59:30.552Z,1020.47
2017-05-16T01:00:31.825Z,1020.45
2017-05-16T01:01:33.095Z,1020.46
2017-05-16T01:02:34.365Z,1020.43
2017-05-16T01:03:35.654Z,1020.45
2017-05-16T01:04:36.937Z,1020.44
2017-05-16T01:05:38.215Z,1020.44
2017-05-16T01:06:39.481Z,1020.45
2017-05-16T01:07:40.819Z,1020.46
2017-05-16T01:08:42.113Z,1020.45
2017-05-16T01:09:43.396Z,1020.42
2017-05-16T01:10:44.945Z,1020.42
2017-05-16T01:11:46.224Z,1020.4
2017-05-16T01:12:47.533Z,1020.43
2017-05-16T01:13:48.820Z,1020.39
2017-05-16T01:14:50.155Z,1020.39
2017-05-16T01:15:51.442Z,1020.39
2017-05-16T01:16:52.793Z,1020.35
2017-05-16T01:17:54.136Z,1020.35
2017-05-16T01:18:55.454Z,1020.35
2017-05-16T01:19:56.813Z,1020.34
2017-05-16T01:20:58.142Z,1020.3
2017-05-16T01:21:59.434Z,1020.3
2017-05-16T01:23:00.701Z,1020.33
2017-05-16T01:24:02.006Z,1020.27
2017-05-16T01:25:03.293Z,1020.27
2017-05-16T01:26:04.683Z,1020.27
2017-05-16T01:27:06.011Z,1020.27
2017-05-16T01:28:07.265Z,1020.24
2017-05-16T01:29:08.573Z,1020.23
2017-05-16T01:30:09.823Z,1020.26
2017-05-16T01:31:11.105Z,1020.24
2017-05-16T01:32:12.533Z,1020.2
2017-05-16T01:33:13.821Z,1020.19
2017-05-16T01:34:15.077Z,1020.21
2017-05-16T01:35:16.356Z,1020.22
2017-05-16T01:36:17.622Z,1020.19
2017-05-16T01:37:19.071Z,1020.25
2017-05-16T01:38:20.367Z,1020.22
2017-05-16T01:39:21.634Z,1020.22
2017-05-16T01:40:22.967Z,1020.22
2017-05-16T01:41:24.251Z,1020.2
2017-05-16T01:42:25.565Z,1020.19
2017-05-16T01:43:26.856Z,1020.18
2017-05-16T01:44:28.157Z,1020.17
2017-05-16T01:45:29.416Z,1020.19
2017-05-16T01:46:30.709Z,1020.17
2017-05-16T01:47:31.993Z,1020.16
2017-05-16T01:48:33.345Z,1020.16
2017-05-16T01:49:34.626Z,1020.14
2017-05-16T01:50:35.919Z,1020.11
2017-05-16T01:51:37.196Z,1020.11
2017-05-16T01:52:38.505Z,1020.11
2017-05-16T01:53:39.800Z,1020.12
2017-05-16T01:54:41.091Z,1020.1
2017-05-16T01:55:42.386Z,1020.12
2017-05-16T01:56:43.693Z,1020.12
2017-05-16T01:57:44.958Z,1020.12
2017-05-16T01:58:46.301Z,1020.11
2017-05-16T01:59:47.625Z,1020.09
2017-05-16T02:00:48.896Z,1020.08
2017-05-16T02:01:50.215Z,1020.04
2017-05-16T02:02:51.564Z,1020.08
2017-05-16T02:03:52.956Z,1020.08
2017-05-16T02:04:54.346Z,1020.09
2017-05-16T02:05:55.648Z,1020.07
2017-05-16T02:06:56.929Z,1020.07
2017-05-16T02:07:58.190Z,1020.07
2017-05-16T02:08:59.598Z,1020.04
2017-05-16T02:10:01.024Z,1020.04
2017-05-16T02:11:02.257Z,1020.05
2017-05-16T02:12:03.547Z,1020.03
2017-05-16T02:13:04.819Z,1020.06
2017-05-16T02:14:06.083Z,1020.02
2017-05-16T02:15:07.604Z,1020.02
2017-05-16T02:16:08.908Z,1020.03
2017-05-16T02:17:10.150Z,1020.02
2017-05-16T02:18:11.452Z,1020.04
2017-05-16T02:19:12.716Z,1019.99
2017-05-16T02:20:14.037Z,1019.98
2017-05-16T02:21:15.290Z,1020.02
2017-05-16T02:22:16.580Z,1020.01
2017-05-16T02:23:17.868Z,1020.01
2017-05-16T02:24:19.130Z,1019.99
2017-05-16T02:25:20.394Z,1019.98
2017-05-16T02:26:21.681Z,1019.99
2017-05-16T02:27:23.037Z,1019.97
2017-05-16T02:28:24.319Z,1019.99
2017-05-16T02:29:25.588Z,1019.99
2017-05-16T02:30:26.893Z,1020.02
2017-05-16T02:31:28.192Z,1019.98
2017-05-16T02:32:29.525Z,1019.99
2017-05-16T02:33:30.882Z,1019.98
2017-05-16T02:34:32.351Z,1020.02
2017-05-16T02:35:33.661Z,1019.96
2017-05-16T02:36:35.095Z,1020.03
2017-05-16T02:37:36.432Z,1020.05
2017-05-16T02:38:37.845Z,1020.07
2017-05-16T02:39:39.158Z,1020.04
2017-05-16T02:40:40.409Z,1020.05
2017-05-16T02:41:41.660Z,1020.06
2017-05-16T02:42:43.007Z,1020.05
2017-05-16T02:43:44.278Z,1019.97
2017-05-16T02:44:45.560Z,1020.01
2017-05-16T02:45:46.838Z,1020.04
2017-05-16T02:46:48.115Z,1020.03
2017-05-16T02:47:49.392Z,1020.05
2017-05-16T02:48:50.811Z,1020.02
2017-05-16T02:49:52.091Z,1019.99
2017-05-16T02:50:53.331Z,1020.02
2017-05-16T02:51:54.589Z,1020.02
2017-05-16T02:52:55.892Z,1019.99
2017-05-16T02:53:57.202Z,1019.98
2017-05-16T02:54:58.460Z,1019.98
2017-05-16T02:55:59.728Z,1019.98
2017-05-16T02:57:00.981Z,1019.99
2017-05-16T02:58:02.253Z,1019.97
2017-05-16T02:59:03.674Z,1019.99
2017-05-16T03:00:05.057Z,1019.97
2017-05-16T03:01:06.615Z,1019.97
2017-05-16T03:02:07.858Z,1019.99
2017-05-16T03:03:09.130Z,1019.96
2017-05-16T03:04:10.409Z,1019.97
2017-05-16T03:05:11.709Z,1019.96
2017-05-16T03:06:12.961Z,1019.94
2017-05-16T03:07:14.338Z,1019.93
2017-05-16T03:08:15.583Z,1019.97
2017-05-16T03:09:16.958Z,1019.93
2017-05-16T03:10:18.381Z,1019.95
2017-05-16T03:11:19.616Z,1019.97
2017-05-16T03:12:20.891Z,1019.99
2017-05-16T03:13:22.164Z,1019.96
2017-05-16T03:14:23.578Z,1019.96
2017-05-16T03:15:24.919Z,1019.95
2017-05-16T03:16:26.282Z,1019.96
2017-05-16T03:17:27.597Z,1019.93
2017-05-16T03:18:28.827Z,1019.96
2017-05-16T03:19:30.096Z,1019.95
2017-05-16T03:20:31.371Z,1019.94
2017-05-16T03:21:32.694Z,1019.96
2017-05-16T03:22:34.031Z,1019.99
2017-05-16T03:23:35.306Z,1019.99
2017-05-16T03:24:36.581Z,1019.99
2017-05-16T03:25:37.858Z,1020
2017-05-16T03:26:39.263Z,1019.99
2017-05-16T03:27:40.574Z,1020.02
2017-05-16T03:28:41.841Z,1020.01
2017-05-16T03:29:43.166Z,1020
2017-05-16T03:30:44.502Z,1020.01
2017-05-16T03:31:45.788Z,1020.01
2017-05-16T03:32:47.195Z,1020.06
2017-05-16T03:33:48.534Z,1020.03
2017-05-16T03:34:49.806Z,1020.03
2017-05-16T03:35:51.132Z,1020.04
2017-05-16T03:36:52.409Z,1020.09
2017-05-16T03:37:53.686Z,1020.07
2017-05-16T03:38:55.014Z,1020.06
2017-05-16T03:39:56.262Z,1020.06
2017-05-16T03:40:57.564Z,1020.1
2017-05-16T03:41:58.854Z,1020.05
2017-05-16T03:43:00.144Z,1020.02
2017-05-16T03:44:01.376Z,1020.05
2017-05-16T03:45:02.648Z,1020.06
2017-05-16T03:46:03.979Z,1020.04
2017-05-16T03:47:05.332Z,1020.05
2017-05-16T03:48:06.653Z,1020
2017-05-16T03:49:07.976Z,1020.04
2017-05-16T03:50:09.270Z,1020.03
2017-05-16T03:51:10.561Z,1020.04
2017-05-16T03:52:11.860Z,1020.02
2017-05-16T03:53:13.197Z,1020.01
2017-05-16T03:54:14.555Z,1020.03
2017-05-16T03:55:15.829Z,1020.02
2017-05-16T03:56:17.104Z,1019.98
2017-05-16T03:57:18.414Z,1020.02
2017-05-16T03:58:19.672Z,1020
2017-05-16T03:59:21.019Z,1019.97
2017-05-16T04:00:22.329Z,1020.02
2017-05-16T04:01:23.592Z,1019.99
2017-05-16T04:02:24.851Z,1020.01
2017-05-16T04:03:26.150Z,1020
2017-05-16T04:04:27.469Z,1020.01
2017-05-16T04:05:28.751Z,1019.98
2017-05-16T04:06:30.041Z,1019.99
2017-05-16T04:07:31.349Z,1020
2017-05-16T04:08:32.647Z,1019.99
2017-05-16T04:09:33.922Z,1020.02
2017-05-16T04:10:35.263Z,1019.99
2017-05-16T04:11:36.662Z,1020.02
2017-05-16T04:12:37.952Z,1019.98
2017-05-16T04:13:39.237Z,1020.02
2017-05-16T04:14:40.583Z,1020
2017-05-16T04:15:41.794Z,1019.96
2017-05-16T04:16:43.173Z,1019.99
2017-05-16T04:17:44.450Z,1019.98
2017-05-16T04:18:45.735Z,1020
2017-05-16T04:19:47.018Z,1019.98
2017-05-16T04:20:48.321Z,1019.98
2017-05-16T04:21:49.562Z,1019.96
2017-05-16T04:22:50.842Z,1019.97
2017-05-16T04:23:52.125Z,1019.99
2017-05-16T04:24:53.403Z,1020
2017-05-16T04:25:54.711Z,1019.98
2017-05-16T04:26:55.963Z,1019.97
2017-05-16T04:27:57.259Z,1020
2017-05-16T04:28:58.543Z,1019.97
2017-05-16T04:29:59.903Z,1019.96
2017-05-16T04:31:01.276Z,1019.92
2017-05-16T04:32:02.638Z,1019.97
2017-05-16T04:33:03.899Z,1019.94
2017-05-16T04:34:05.220Z,1019.96
2017-05-16T04:35:06.521Z,1019.94
2017-05-16T04:36:07.798Z,1019.99
2017-05-16T04:37:09.152Z,1019.97
2017-05-16T04:38:10.543Z,1019.96
2017-05-16T04:39:11.862Z,1020.02
2017-05-16T04:40:13.182Z,1019.98
2017-05-16T04:41:14.512Z,1020
2017-05-16T04:42:15.761Z,1020
2017-05-16T04:43:17.165Z,1020.01
2017-05-16T04:44:18.527Z,1019.98
2017-05-16T04:45:19.812Z,1020.02
2017-05-16T04:46:21.093Z,1020
2017-05-16T04:47:22.357Z,1019.99
2017-05-16T04:48:23.631Z,1020
2017-05-16T04:49:24.968Z,1019.97
2017-05-16T04:50:26.309Z,1019.96
2017-05-16T04:51:27.561Z,1019.97
2017-05-16T04:52:28.824Z,1019.98
2017-05-16T04:53:30.120Z,1019.99
2017-05-16T04:54:31.449Z,1020.01
2017-05-16T04:55:32.720Z,1020.04
2017-05-16T04:56:33.991Z,1020.05
2017-05-16T04:57:35.275Z,1020.03
2017-05-16T04:58:36.566Z,1020.05
2017-05-16T04:59:37.824Z,1020.04
2017-05-16T05:00:39.204Z,1020.06
2017-05-16T05:01:40.528Z,1020.03
2017-05-16T05:02:41.802Z,1020.05
2017-05-16T05:03:43.136Z,1020.03
2017-05-16T05:04:44.770Z,1020.03
2017-05-16T05:05:45.962Z,1020.05
2017-05-16T05:06:47.232Z,1020.06
2017-05-16T05:07:48.574Z,1020.08
2017-05-16T05:08:49.843Z,1020.03
2017-05-16T05:09:51.128Z,1020.07
2017-05-16T05:10:52.565Z,1020.07
2017-05-16T05:11:53.891Z,1020.05
2017-05-16T05:12:55.183Z,1020.05
2017-05-16T05:13:56.458Z,1020.06
2017-05-16T05:14:57.770Z,1020.05
2017-05-16T05:15:59.064Z,1020.04
2017-05-16T05:17:00.431Z,1020.08
2017-05-16T05:18:01.696Z,1020.08
2017-05-16T05:19:02.987Z,1020.07
2017-05-16T05:20:04.287Z,1020.06
2017-05-16T05:21:05.614Z,1020.04
2017-05-16T05:22:06.894Z,1020.04
2017-05-16T05:23:08.178Z,1020
2017-05-16T05:24:09.463Z,1020.02
2017-05-16T05:25:10.741Z,1019.99
2017-05-16T05:26:12.009Z,1020.05
2017-05-16T05:27:13.340Z,1020.03
2017-05-16T05:28:14.674Z,1020.06
2017-05-16T05:29:15.947Z,1020.05
2017-05-16T05:30:17.216Z,1020.08
2017-05-16T05:31:18.492Z,1020.07
2017-05-16T05:32:19.771Z,1020.07
2017-05-16T05:33:21.032Z,1020.09
2017-05-16T05:34:22.347Z,1020.1
2017-05-16T05:35:23.610Z,1020.11
2017-05-16T05:36:24.872Z,1020.11
2017-05-16T05:37:26.194Z,1020.1
2017-05-16T05:38:27.461Z,1020.14
2017-05-16T05:39:28.740Z,1020.12
2017-05-16T05:40:30.032Z,1020.13
2017-05-16T05:41:31.311Z,1020.14
2017-05-16T05:42:32.619Z,1020.14
2017-05-16T05:43:33.848Z,1020.17
2017-05-16T05:44:35.111Z,1020.18
2017-05-16T05:45:36.452Z,1020.19
2017-05-16T05:46:37.765Z,1020.15
2017-05-16T05:47:39.029Z,1020.16
2017-05-16T05:48:40.370Z,1020.21
2017-05-16T05:49:41.719Z,1020.17
2017-05-16T05:50:43.081Z,1020.2
2017-05-16T05:51:44.366Z,1020.19
2017-05-16T05:52:45.654Z,1020.21
2017-05-16T05:53:46.926Z,1020.16
2017-05-16T05:54:48.241Z,1020.2
2017-05-16T05:55:49.554Z,1020.19
2017-05-16T05:56:50.831Z,1020.17
2017-05-16T05:57:52.102Z,1020.19
2017-05-16T05:58:53.382Z,1020.2
2017-05-16T05:59:54.725Z,1020.17
2017-05-16T06:00:55.983Z,1020.15
2017-05-16T06:01:57.275Z,1020.14
2017-05-16T06:02:58.689Z,1020.15
2017-05-16T06:03:59.980Z,1020.19
2017-05-16T06:05:01.281Z,1020.17
2017-05-16T06:06:02.566Z,1020.15
2017-05-16T06:07:03.844Z,1020.17
2017-05-16T06:08:05.176Z,1020.17
2017-05-16T06:09:06.595Z,1020.15
2017-05-16T06:10:07.884Z,1020.17
2017-05-16T06:11:09.173Z,1020.15
2017-05-16T06:12:10.541Z,1020.15
2017-05-16T06:13:11.807Z,1020.14
2017-05-16T06:14:13.141Z,1020.16
2017-05-16T06:15:14.429Z,1020.15
2017-05-16T06:16:15.710Z,1020.2
2017-05-16T06:17:16.987Z,1020.17
2017-05-16T06:18:18.310Z,1020.21
2017-05-16T06:19:19.621Z,1020.16
2017-05-16T06:20:20.904Z,1020.19
2017-05-16T06:21:22.196Z,1020.15
2017-05-16T06:22:23.463Z,1020.15
2017-05-16T06:23:24.767Z,1020.2
2017-05-16T06:24:26.038Z,1020.19
2017-05-16T06:25:27.365Z,1020.21
2017-05-16T06:26:28.643Z,1020.23
2017-05-16T06:27:29.912Z,1020.24
2017-05-16T06:28:31.192Z,1020.24
2017-05-16T06:29:32.595Z,1020.25
2017-05-16T06:30:33.773Z,1020.27
2017-05-16T06:31:35.100Z,1020.26
2017-05-16T06:32:36.371Z,1020.27
2017-05-16T06:33:37.674Z,1020.26
2017-05-16T06:34:38.950Z,1020.27
2017-05-16T06:35:40.445Z,1020.27
2017-05-16T06:36:41.639Z,1020.31
2017-05-16T06:37:42.902Z,1020.29
2017-05-16T06:38:44.197Z,1020.3
2017-05-16T06:39:45.520Z,1020.3
2017-05-16T06:40:46.977Z,1020.33
2017-05-16T06:41:48.218Z,1020.34
2017-05-16T06:42:49.545Z,1020.31
2017-05-16T06:43:50.800Z,1020.34
2017-05-16T06:44:52.079Z,1020.36
2017-05-16T06:45:53.404Z,1020.34
2017-05-16T06:46:54.701Z,1020.32
2017-05-16T06:47:55.983Z,1020.35
2017-05-16T06:48:57.277Z,1020.4
2017-05-16T06:49:58.551Z,1020.41
2017-05-16T06:50:59.853Z,1020.41
2017-05-16T06:52:01.199Z,1020.42
2017-05-16T06:53:02.779Z,1020.45
2017-05-16T06:54:04.035Z,1020.47
2017-05-16T06:55:05.340Z,1020.5
2017-05-16T06:56:06.627Z,1020.49
2017-05-16T06:57:07.942Z,1020.5
2017-05-16T06:58:09.393Z,1020.47
2017-05-16T06:59:10.720Z,1020.48
2017-05-16T07:00:11.989Z,1020.48
2017-05-16T07:01:13.367Z,1020.46
2017-05-16T07:02:14.746Z,1020.48
2017-05-16T07:03:16.054Z,1020.52
2017-05-16T07:04:17.363Z,1020.58
2017-05-16T07:05:18.632Z,1020.58
2017-05-16T07:06:19.911Z,1020.55
2017-05-16T07:07:21.200Z,1020.54
2017-05-16T07:08:22.529Z,1020.53
2017-05-16T07:09:23.804Z,1020.52
2017-05-16T07:10:25.090Z,1020.55
2017-05-16T07:11:26.360Z,1020.54
2017-05-16T07:12:27.626Z,1020.56
2017-05-16T07:13:29.153Z,1020.56
2017-05-16T07:14:30.417Z,1020.56
2017-05-16T07:15:31.694Z,1020.62
2017-05-16T07:16:32.986Z,1020.58
2017-05-16T07:17:34.308Z,1020.64
2017-05-16T07:18:35.572Z,1020.64
2017-05-16T07:19:36.946Z,1020.6
2017-05-16T07:20:38.241Z,1020.58
2017-05-16T07:21:39.504Z,1020.63
2017-05-16T07:22:40.817Z,1020.59
2017-05-16T07:23:42.083Z,1020.61
2017-05-16T07:24:43.331Z,1020.62
2017-05-16T07:25:44.688Z,1020.57
2017-05-16T07:26:45.957Z,1020.59
2017-05-16T07:27:47.236Z,1020.58
2017-05-16T07:28:48.541Z,1020.55
2017-05-16T07:29:49.823Z,1020.56
2017-05-16T07:30:51.080Z,1020.58
2017-05-16T07:31:52.417Z,1020.53
2017-05-16T07:32:53.742Z,1020.56
2017-05-16T07:33:55.036Z,1020.53
2017-05-16T07:34:56.359Z,1020.57
2017-05-16T07:35:57.621Z,1020.55
2017-05-16T07:36:59.023Z,1020.57
2017-05-16T07:38:00.389Z,1020.56
2017-05-16T07:39:01.655Z,1020.58
2017-05-16T07:40:02.986Z,1020.56
2017-05-16T07:41:04.324Z,1020.56
2017-05-16T07:42:05.493Z,1020.59
2017-05-16T07:43:06.800Z,1020.55
2017-05-16T07:44:08.098Z,1020.5
2017-05-16T07:45:09.391Z,1020.5
2017-05-16T07:46:10.705Z,1020.47
2017-05-16T07:47:12.041Z,1020.46
2017-05-16T07:48:13.295Z,1020.45
2017-05-16T07:49:14.598Z,1020.47
2017-05-16T07:50:15.905Z,1020.47
2017-05-16T07:51:17.185Z,1020.49
2017-05-16T07:52:18.551Z,1020.49
2017-05-16T07:53:19.898Z,1020.52
2017-05-16T07:54:21.114Z,1020.52
2017-05-16T07:55:22.407Z,1020.5
2017-05-16T07:56:23.673Z,1020.48
2017-05-16T07:57:25.056Z,1020.47
2017-05-16T07:58:26.406Z,1020.46
2017-05-16T07:59:27.716Z,1020.45
2017-05-16T08:00:28.997Z,1020.48
2017-05-16T08:01:30.303Z,1020.48
2017-05-16T08:02:31.585Z,1020.51
2017-05-16T08:03:32.895Z,1020.5
2017-05-16T08:04:34.174Z,1020.5
2017-05-16T08:05:35.450Z,1020.52
2017-05-16T08:06:36.719Z,1020.51
2017-05-16T08:07:38.010Z,1020.51
2017-05-16T08:08:39.422Z,1020.5
2017-05-16T08:09:40.706Z,1020.5
2017-05-16T08:10:42.052Z,1020.47
2017-05-16T08:11:43.324Z,1020.5
2017-05-16T08:12:44.634Z,1020.51
2017-05-16T08:13:45.943Z,1020.54
2017-05-16T08:14:47.225Z,1020.52
2017-05-16T08:15:48.534Z,1020.54
2017-05-16T08:16:49.792Z,1020.56
2017-05-16T08:17:51.076Z,1020.52
2017-05-16T08:18:52.375Z,1020.58
2017-05-16T08:19:53.687Z,1020.55
2017-05-16T08:20:54.956Z,1020.6
2017-05-16T08:21:56.309Z,1020.62
2017-05-16T08:22:57.576Z,1020.64
2017-05-16T08:23:58.845Z,1020.65
2017-05-16T08:25:00.118Z,1020.59
2017-05-16T08:26:01.389Z,1020.6
2017-05-16T08:27:02.748Z,1020.59
2017-05-16T08:28:04.073Z,1020.56
2017-05-16T08:29:05.352Z,1020.55
2017-05-16T08:30:06.621Z,1020.57
2017-05-16T08:31:07.866Z,1020.55
2017-05-16T08:32:09.212Z,1020.56
2017-05-16T08:33:10.468Z,1020.62
2017-05-16T08:34:11.760Z,1020.56
2017-05-16T08:35:13.029Z,1020.65
2017-05-16T08:36:14.291Z,1020.64
2017-05-16T08:37:15.690Z,1020.69
2017-05-16T08:38:16.979Z,1020.62
2017-05-16T08:39:18.249Z,1020.61
2017-05-16T08:40:19.530Z,1020.65
2017-05-16T08:41:20.796Z,1020.68
2017-05-16T08:42:22.095Z,1020.71
2017-05-16T08:43:23.441Z,1020.67
2017-05-16T08:44:24.723Z,1020.79
2017-05-16T08:45:26.289Z,1020.73
2017-05-16T08:46:27.562Z,1020.77
2017-05-16T08:47:28.862Z,1020.8
2017-05-16T08:48:30.143Z,1020.84
2017-05-16T08:49:31.448Z,1020.81
2017-05-16T08:50:32.731Z,1020.8
2017-05-16T08:51:34.014Z,1020.77
2017-05-16T08:52:35.307Z,1020.76
2017-05-16T08:53:36.720Z,1020.72
2017-05-16T08:54:38.019Z,1020.73
2017-05-16T08:55:39.284Z,1020.72
2017-05-16T08:56:40.622Z,1020.78
2017-05-16T08:57:41.929Z,1020.69
2017-05-16T08:58:43.328Z,1020.61
2017-05-16T08:59:44.606Z,1020.55
2017-05-16T09:00:45.948Z,1020.5
2017-05-16T09:01:47.204Z,1020.55
2017-05-16T09:02:48.521Z,1020.59
2017-05-16T09:03:49.834Z,1020.59
2017-05-16T09:04:51.279Z,1020.58
2017-05-16T09:05:52.654Z,1020.54
2017-05-16T09:06:53.965Z,1020.57
2017-05-16T09:07:55.262Z,1020.61
2017-05-16T09:08:56.541Z,1020.59
2017-05-16T09:09:57.884Z,1020.56
2017-05-16T09:10:59.221Z,1020.54
2017-05-16T09:12:00.670Z,1020.63
2017-05-16T09:13:01.950Z,1020.58
2017-05-16T09:14:03.271Z,1020.69
2017-05-16T09:15:04.591Z,1020.75
2017-05-16T09:16:05.857Z,1020.62
2017-05-16T09:17:07.122Z,1020.61
2017-05-16T09:18:08.455Z,1020.64
2017-05-16T09:19:09.744Z,1020.82
2017-05-16T09:20:11.026Z,1020.83
2017-05-16T09:21:12.385Z,1020.59
2017-05-16T09:22:13.663Z,1020.55
2017-05-16T09:23:14.978Z,1020.57
2017-05-16T09:24:16.252Z,1020.55
2017-05-16T09:25:17.547Z,1020.53
2017-05-16T09:26:19.075Z,1020.59
2017-05-16T09:27:20.376Z,1020.6
2017-05-16T09:28:21.679Z,1020.73
2017-05-16T09:29:22.917Z,1020.88
2017-05-16T09:30:24.229Z,1021.26
2017-05-16T09:31:25.622Z,1020.96
2017-05-16T09:32:26.983Z,1021.2
2017-05-16T09:33:28.268Z,1021.8
2017-05-16T09:34:29.549Z,1020.89
2017-05-16T09:35:30.910Z,1021.32
2017-05-16T09:36:32.202Z,1021.16
2017-05-16T09:37:33.466Z,1021.72
2017-05-16T09:38:34.772Z,1021.18
2017-05-16T09:39:36.060Z,1020.87
2017-05-16T09:40:37.334Z,1020.53
2017-05-16T09:41:38.607Z,1020.4
2017-05-16T09:42:40.410Z,1020.39
2017-05-16T09:43:41.584Z,1020.32
2017-05-16T09:44:42.873Z,1020.31
2017-05-16T09:45:44.146Z,1020.27
2017-05-16T09:46:45.413Z,1020.21
2017-05-16T09:47:46.814Z,1020.23
2017-05-16T09:48:48.097Z,1020.25
2017-05-16T09:49:49.396Z,1020.25
2017-05-16T09:50:50.675Z,1020.22
2017-05-16T09:51:51.950Z,1020.22
2017-05-16T09:52:53.272Z,1020.13
2017-05-16T09:53:54.634Z,1020.21
2017-05-16T09:54:55.940Z,1020.16
2017-05-16T09:55:57.230Z,1020.23
2017-05-16T09:56:58.513Z,1020.22
2017-05-16T09:57:59.868Z,1020.29
2017-05-16T09:59:01.339Z,1020.28
2017-05-16T10:00:02.594Z,1020.39
2017-05-16T10:01:03.888Z,1020.44
2017-05-16T10:02:05.169Z,1020.32
2017-05-16T10:03:06.414Z,1020.34
2017-05-16T10:04:07.712Z,1020.26
2017-05-16T10:05:09.091Z,1020.21
2017-05-16T10:06:10.397Z,1020.22
2017-05-16T10:07:11.685Z,1020.31
2017-05-16T10:08:12.982Z,1020.32
2017-05-16T10:09:14.278Z,1020.28
2017-05-16T10:10:15.607Z,1020.26
2017-05-16T10:11:16.905Z,1020.24
2017-05-16T10:12:18.199Z,1020.25
2017-05-16T10:13:19.511Z,1020.14
2017-05-16T10:14:20.803Z,1020.2
2017-05-16T10:15:22.070Z,1020.2
2017-05-16T10:16:23.414Z,1020.22
2017-05-16T10:17:24.764Z,1020.19
2017-05-16T10:18:26.065Z,1020.2
2017-05-16T10:19:27.394Z,1020.16
2017-05-16T10:20:28.650Z,1020.23
2017-05-16T10:21:30.083Z,1020.24
2017-05-16T10:22:31.294Z,1020.24
2017-05-16T10:23:32.566Z,1020.24
2017-05-16T10:24:33.855Z,1020.26
2017-05-16T10:25:35.256Z,1020.23
2017-05-16T10:26:36.594Z,1020.15
2017-05-16T10:27:37.840Z,1020.2
2017-05-16T10:28:39.141Z,1020.15
2017-05-16T10:29:40.436Z,1020.14
2017-05-16T10:30:41.841Z,1020.11
2017-05-16T10:31:43.178Z,1020.07
2017-05-16T10:32:44.447Z,1020.1
2017-05-16T10:33:45.736Z,1020.12
2017-05-16T10:34:47.037Z,1020.18
2017-05-16T10:36:18.512Z,1020.2
2017-05-16T10:37:19.937Z,1020.23
2017-05-16T10:38:21.273Z,1020.26
2017-05-16T10:39:22.651Z,1020.31
2017-05-16T10:40:24.160Z,1020.27
2017-05-16T10:41:25.519Z,1020.27
2017-05-16T10:42:26.842Z,1020.27
2017-05-16T10:43:28.139Z,1020.27
2017-05-16T10:44:29.408Z,1020.25
2017-05-16T10:45:30.719Z,1020.22
2017-05-16T10:46:31.995Z,1020.2
2017-05-16T10:47:33.317Z,1020.22
2017-05-16T10:48:34.621Z,1020.2
2017-05-16T10:49:35.873Z,1020.18
2017-05-16T10:50:37.312Z,1020.15
2017-05-16T10:51:38.602Z,1020.21
2017-05-16T10:52:39.895Z,1020.26
2017-05-16T10:53:41.163Z,1020.28
2017-05-16T10:54:42.431Z,1020.23
2017-05-16T10:55:43.708Z,1020.21
2017-05-16T10:56:45.024Z,1020.25
2017-05-16T10:57:46.254Z,1020.22
2017-05-16T10:58:47.586Z,1020.2
2017-05-16T10:59:48.893Z,1020.2
2017-05-16T11:00:50.220Z,1020.17
2017-05-16T11:01:51.558Z,1020.23
2017-05-16T11:02:52.826Z,1020.17
2017-05-16T11:03:54.133Z,1020.16
2017-05-16T11:04:55.535Z,1020.13
2017-05-16T11:05:56.821Z,1020.13
2017-05-16T11:06:58.153Z,1020.1
2017-05-16T11:07:59.448Z,1020.08
2017-05-16T11:09:00.870Z,1020.09
2017-05-16T11:10:02.083Z,1020.08
2017-05-16T11:11:03.407Z,1020.05
2017-05-16T11:12:04.708Z,1019.99
2017-05-16T11:13:05.981Z,1019.95
2017-05-16T11:14:07.277Z,1019.95
2017-05-16T11:15:08.655Z,1019.96
2017-05-16T11:16:09.931Z,1019.96
2017-05-16T11:17:11.216Z,1019.98
2017-05-16T11:18:12.496Z,1019.99
2017-05-16T11:19:13.765Z,1019.99
2017-05-16T11:20:15.044Z,1019.93
2017-05-16T11:21:16.343Z,1019.93
2017-05-16T11:22:17.627Z,1019.9
2017-05-16T11:23:18.943Z,1019.94
2017-05-16T11:24:20.218Z,1019.88
2017-05-16T11:25:21.583Z,1019.87
2017-05-16T11:26:22.882Z,1019.87
2017-05-16T11:27:24.223Z,1019.83
2017-05-16T11:28:25.496Z,1019.84
2017-05-16T11:29:26.785Z,1019.85
2017-05-16T11:30:28.054Z,1019.82
2017-05-16T11:31:29.359Z,1019.83
2017-05-16T11:32:30.698Z,1019.79
2017-05-16T11:33:32.074Z,1019.79
2017-05-16T11:34:33.350Z,1019.78
2017-05-16T11:35:34.633Z,1019.79
2017-05-16T11:36:35.924Z,1019.84
2017-05-16T11:37:37.265Z,1019.76
2017-05-16T11:38:38.614Z,1019.72
2017-05-16T11:39:39.911Z,1019.74
2017-05-16T11:40:41.180Z,1019.71
2017-05-16T11:41:42.453Z,1019.74
2017-05-16T11:42:43.751Z,1019.73
2017-05-16T11:43:45.029Z,1019.77
2017-05-16T11:44:46.329Z,1019.73
2017-05-16T11:45:47.599Z,1019.67
2017-05-16T11:46:48.870Z,1019.69
2017-05-16T11:47:50.175Z,1019.64
2017-05-16T11:48:51.554Z,1019.61
2017-05-16T11:49:52.877Z,1019.61
2017-05-16T11:50:54.184Z,1019.58
2017-05-16T11:51:55.453Z,1019.57
2017-05-16T11:52:56.733Z,1019.62
2017-05-16T11:53:58.003Z,1019.59
2017-05-16T11:54:59.323Z,1019.53
2017-05-16T11:56:00.653Z,1019.52
2017-05-16T11:57:01.936Z,1019.52
2017-05-16T11:58:03.270Z,1019.48
2017-05-16T11:59:04.523Z,1019.47
2017-05-16T12:00:05.824Z,1019.49
2017-05-16T12:01:07.323Z,1019.51
2017-05-16T12:02:08.809Z,1019.48
2017-05-16T12:03:10.069Z,1019.45
2017-05-16T12:04:11.352Z,1019.46
2017-05-16T12:05:12.698Z,1019.43
2017-05-16T12:06:13.966Z,1019.42
2017-05-16T12:07:15.265Z,1019.42
2017-05-16T12:08:16.540Z,1019.4
2017-05-16T12:09:17.858Z,1019.42
2017-05-16T12:10:19.108Z,1019.42
2017-05-16T12:11:20.394Z,1019.45
2017-05-16T12:12:21.692Z,1019.4
2017-05-16T12:13:22.983Z,1019.38
2017-05-16T12:14:24.302Z,1019.41
2017-05-16T12:15:25.594Z,1019.41
2017-05-16T12:16:26.939Z,1019.44
2017-05-16T12:17:28.183Z,1019.45
2017-05-16T12:18:29.458Z,1019.41
2017-05-16T12:19:30.760Z,1019.42
2017-05-16T12:20:32.048Z,1019.41
2017-05-16T12:21:33.367Z,1019.38
2017-05-16T12:22:34.684Z,1019.39
2017-05-16T12:23:35.972Z,1019.39
2017-05-16T12:24:37.242Z,1019.41